Aviation Digital Data Service (ADDS)

Output produced by METARs form (1052 UTC 30 October 2020)
found at http://aviationweather.gov/metar/data/
 
METAR text: KPSO 301035Z AUTO 00000KT 10SM CLR M01/M01 A3036 RMK AO2 T10101010
Conditions at: KPSO (PAGOSA SPRINGS , CO, US) observed 1035 UTC 30 October 2020
Temperature: -1.0°C (30°F)
Dewpoint: -1.0°C (30°F) [RH = 100%]
Pressure (altimeter): 30.36 inches Hg (1028.2 mb)
Winds: calm
Visibility: 10 or more miles (16+ km)
Ceiling: at least 12,000 feet AGL
Clouds: sky clear below 12,000 feet AGL
Weather: automated observation with no human augmentation;
there may or may not be significant weather present at this time

METAR text: KPSO 301015Z AUTO 00000KT 10SM CLR M01/M01 A3036 RMK AO2 T10141014
Conditions at: KPSO (PAGOSA SPRINGS , CO, US) observed 1015 UTC 30 October 2020
Temperature: -1.4°C (29°F)
Dewpoint: -1.4°C (29°F) [RH = 100%]
Pressure (altimeter): 30.36 inches Hg (1028.2 mb)
Winds: calm
Visibility: 10 or more miles (16+ km)
Ceiling: at least 12,000 feet AGL
Clouds: sky clear below 12,000 feet AGL
Weather: automated observation with no human augmentation;
there may or may not be significant weather present at this time

METAR text: KPSO 300955Z AUTO 00000KT 10SM CLR M01/M01 A3036 RMK AO2 T10081010
Conditions at: KPSO (PAGOSA SPRINGS , CO, US) observed 0955 UTC 30 October 2020
Temperature: -0.8°C (31°F)
Dewpoint: -1.0°C (30°F) [RH = 99%]
Pressure (altimeter): 30.36 inches Hg (1028.2 mb)
Winds: calm
Visibility: 10 or more miles (16+ km)
Ceiling: at least 12,000 feet AGL
Clouds: sky clear below 12,000 feet AGL
Weather: automated observation with no human augmentation;
there may or may not be significant weather present at this time